sensor_id;sensor_type;location;lat;lon;timestamp;pressure;altitude;pressure_sealevel;temperature;humidity
15817;BME280;8009;50.070;8.232;2024-02-23T00:00:47;97602.84;;;12.49;54.82
15817;BME280;8009;50.070;8.232;2024-02-23T00:03:15;97616.38;;;11.74;56.24
15817;BME280;8009;50.070;8.232;2024-02-23T00:05:44;97618.47;;;11.94;58.52
15817;BME280;8009;50.070;8.232;2024-02-23T00:08:12;97616.78;;;12.08;55.08
15817;BME280;8009;50.070;8.232;2024-02-23T00:10:44;97625.22;;;12.28;54.08
15817;BME280;8009;50.070;8.232;2024-02-23T00:13:13;97627.28;;;12.26;56.12
15817;BME280;8009;50.070;8.232;2024-02-23T00:15:41;97617.94;;;12.43;54.89
15817;BME280;8009;50.070;8.232;2024-02-23T00:18:10;97618.94;;;11.98;55.34
15817;BME280;8009;50.070;8.232;2024-02-23T00:20:40;97624.41;;;12.72;55.43
15817;BME280;8009;50.070;8.232;2024-02-23T00:23:08;97638.50;;;12.00;53.61
15817;BME280;8009;50.070;8.232;2024-02-23T00:25:37;97649.78;;;12.41;53.67
15817;BME280;8009;50.070;8.232;2024-02-23T00:28:08;97666.69;;;12.06;54.06
15817;BME280;8009;50.070;8.232;2024-02-23T00:30:37;97671.44;;;12.41;52.36
15817;BME280;8009;50.070;8.232;2024-02-23T00:33:05;97691.94;;;12.21;52.62
15817;BME280;8009;50.070;8.232;2024-02-23T00:35:35;97693.59;;;12.60;55.83
15817;BME280;8009;50.070;8.232;2024-02-23T00:38:04;97695.31;;;12.38;54.20
15817;BME280;8009;50.070;8.232;2024-02-23T00:40:33;97694.81;;;12.72;54.99
15817;BME280;8009;50.070;8.232;2024-02-23T00:43:01;97712.69;;;12.06;52.21
15817;BME280;8009;50.070;8.232;2024-02-23T00:45:32;97721.78;;;12.28;51.77
15817;BME280;8009;50.070;8.232;2024-02-23T00:48:01;97732.72;;;12.34;52.32
15817;BME280;8009;50.070;8.232;2024-02-23T00:50:29;97751.25;;;12.00;52.27
15817;BME280;8009;50.070;8.232;2024-02-23T00:52:58;97746.47;;;11.08;58.91
15817;BME280;8009;50.070;8.232;2024-02-23T00:55:26;97743.53;;;10.62;57.96
15817;BME280;8009;50.070;8.232;2024-02-23T00:57:55;97742.31;;;11.68;61.45
15817;BME280;8009;50.070;8.232;2024-02-23T01:00:24;97744.75;;;11.55;57.01
15817;BME280;8009;50.070;8.232;2024-02-23T01:02:55;97747.13;;;11.81;58.07
15817;BME280;8009;50.070;8.232;2024-02-23T01:05:25;97749.97;;;11.17;56.94
15817;BME280;8009;50.070;8.232;2024-02-23T01:07:54;97760.97;;;11.15;54.89
15817;BME280;8009;50.070;8.232;2024-02-23T01:10:23;97760.75;;;11.64;54.74
15817;BME280;8009;50.070;8.232;2024-02-23T01:12:52;97760.81;;;11.87;54.97
15817;BME280;8009;50.070;8.232;2024-02-23T01:15:20;97767.78;;;11.74;54.04
15817;BME280;8009;50.070;8.232;2024-02-23T01:17:49;97765.44;;;10.10;58.79
15817;BME280;8009;50.070;8.232;2024-02-23T01:20:20;97770.00;;;10.75;58.13
15817;BME280;8009;50.070;8.232;2024-02-23T01:22:48;97783.69;;;10.65;57.81
15817;BME280;8009;50.070;8.232;2024-02-23T01:25:17;97777.16;;;11.15;61.11
15817;BME280;8009;50.070;8.232;2024-02-23T01:27:46;97793.53;;;11.61;54.99
15817;BME280;8009;50.070;8.232;2024-02-23T01:30:16;97797.00;;;11.39;52.37
15817;BME280;8009;50.070;8.232;2024-02-23T01:32:45;97794.91;;;11.02;57.88
15817;BME280;8009;50.070;8.232;2024-02-23T01:35:17;97789.91;;;10.74;54.12
15817;BME280;8009;50.070;8.232;2024-02-23T01:37:48;97799.44;;;11.26;52.06
15817;BME280;8009;50.070;8.232;2024-02-23T01:40:17;97802.50;;;11.06;54.56
15817;BME280;8009;50.070;8.232;2024-02-23T01:42:45;97802.50;;;11.14;55.44
15817;BME280;8009;50.070;8.232;2024-02-23T01:45:14;97809.09;;;10.87;52.76
15817;BME280;8009;50.070;8.232;2024-02-23T01:47:42;97807.06;;;10.97;53.09
15817;BME280;8009;50.070;8.232;2024-02-23T01:50:10;97805.41;;;10.88;52.55
15817;BME280;8009;50.070;8.232;2024-02-23T01:52:39;97813.69;;;10.70;51.65
15817;BME280;8009;50.070;8.232;2024-02-23T01:55:11;97822.75;;;11.10;52.97
15817;BME280;8009;50.070;8.232;2024-02-23T01:57:39;97829.22;;;10.36;53.05
15817;BME280;8009;50.070;8.232;2024-02-23T02:00:11;97823.81;;;10.85;53.41
15817;BME280;8009;50.070;8.232;2024-02-23T02:02:44;97826.69;;;10.59;50.96
15817;BME280;8009;50.070;8.232;2024-02-23T02:05:12;97830.53;;;10.97;50.59
15817;BME280;8009;50.070;8.232;2024-02-23T02:07:41;97836.09;;;11.04;51.25
15817;BME280;8009;50.070;8.232;2024-02-23T02:10:12;97841.19;;;10.74;50.96
15817;BME280;8009;50.070;8.232;2024-02-23T02:12:41;97844.03;;;10.97;50.14
15817;BME280;8009;50.070;8.232;2024-02-23T02:15:11;97850.75;;;10.11;52.30
15817;BME280;8009;50.070;8.232;2024-02-23T02:17:39;97844.91;;;10.81;53.42
15817;BME280;8009;50.070;8.232;2024-02-23T02:20:12;97839.88;;;10.45;49.68
15817;BME280;8009;50.070;8.232;2024-02-23T02:22:40;97831.91;;;10.44;51.94
15817;BME280;8009;50.070;8.232;2024-02-23T02:25:09;97852.22;;;10.06;51.05
15817;BME280;8009;50.070;8.232;2024-02-23T02:27:39;97849.22;;;10.17;50.66
15817;BME280;8009;50.070;8.232;2024-02-23T02:30:11;97844.16;;;10.14;51.55
15817;BME280;8009;50.070;8.232;2024-02-23T02:32:40;97848.78;;;10.54;52.13
15817;BME280;8009;50.070;8.232;2024-02-23T02:35:10;97857.28;;;9.92;52.28
15817;BME280;8009;50.070;8.232;2024-02-23T02:37:39;97852.16;;;10.56;52.61
15817;BME280;8009;50.070;8.232;2024-02-23T02:40:08;97853.97;;;10.23;52.96
15817;BME280;8009;50.070;8.232;2024-02-23T02:42:39;97854.19;;;9.87;54.04
15817;BME280;8009;50.070;8.232;2024-02-23T02:45:08;97856.81;;;10.13;51.97
15817;BME280;8009;50.070;8.232;2024-02-23T02:47:36;97866.41;;;9.65;53.64
15817;BME280;8009;50.070;8.232;2024-02-23T02:50:05;97867.19;;;8.89;53.61
15817;BME280;8009;50.070;8.232;2024-02-23T02:52:34;97874.31;;;9.24;53.59
15817;BME280;8009;50.070;8.232;2024-02-23T02:55:03;97873.03;;;10.38;53.33
15817;BME280;8009;50.070;8.232;2024-02-23T02:57:31;97877.03;;;10.09;50.97
15817;BME280;8009;50.070;8.232;2024-02-23T03:00:04;97880.72;;;10.08;51.65
15817;BME280;8009;50.070;8.232;2024-02-23T03:02:34;97881.38;;;10.02;54.13
15817;BME280;8009;50.070;8.232;2024-02-23T03:05:03;97895.63;;;10.29;53.27
15817;BME280;8009;50.070;8.232;2024-02-23T03:07:32;97892.47;;;9.91;54.09
15817;BME280;8009;50.070;8.232;2024-02-23T03:10:00;97887.41;;;10.38;53.04
15817;BME280;8009;50.070;8.232;2024-02-23T03:12:28;97889.16;;;10.21;51.57
15817;BME280;8009;50.070;8.232;2024-02-23T03:14:57;97899.47;;;9.41;53.55
15817;BME280;8009;50.070;8.232;2024-02-23T03:17:30;97900.44;;;10.00;50.78
15817;BME280;8009;50.070;8.232;2024-02-23T03:19:58;97907.78;;;9.90;52.85
15817;BME280;8009;50.070;8.232;2024-02-23T03:22:26;97904.94;;;9.58;52.98
15817;BME280;8009;50.070;8.232;2024-02-23T03:24:55;97909.63;;;9.21;54.47
15817;BME280;8009;50.070;8.232;2024-02-23T03:27:28;97900.56;;;9.99;51.78
15817;BME280;8009;50.070;8.232;2024-02-23T03:29:56;97908.28;;;9.86;52.15
15817;BME280;8009;50.070;8.232;2024-02-23T03:32:26;97907.50;;;9.59;53.26
15817;BME280;8009;50.070;8.232;2024-02-23T03:35:05;97907.28;;;9.95;52.50
15817;BME280;8009;50.070;8.232;2024-02-23T03:37:34;97903.03;;;9.84;53.12
15817;BME280;8009;50.070;8.232;2024-02-23T03:40:03;97891.25;;;9.77;53.48
15817;BME280;8009;50.070;8.232;2024-02-23T03:42:31;97886.94;;;10.00;53.66
15817;BME280;8009;50.070;8.232;2024-02-23T03:45:04;97893.44;;;9.82;55.51
15817;BME280;8009;50.070;8.232;2024-02-23T03:47:33;97903.91;;;8.98;57.16
15817;BME280;8009;50.070;8.232;2024-02-23T03:50:05;97906.44;;;9.00;57.24
15817;BME280;8009;50.070;8.232;2024-02-23T03:52:33;97903.63;;;9.27;56.27
15817;BME280;8009;50.070;8.232;2024-02-23T03:55:02;97906.31;;;9.01;57.03
15817;BME280;8009;50.070;8.232;2024-02-23T03:57:31;97901.81;;;9.70;55.91
15817;BME280;8009;50.070;8.232;2024-02-23T03:59:59;97905.88;;;9.40;55.86
15817;BME280;8009;50.070;8.232;2024-02-23T04:02:27;97904.84;;;9.67;56.00
15817;BME280;8009;50.070;8.232;2024-02-23T04:04:56;97906.09;;;9.47;56.09
15817;BME280;8009;50.070;8.232;2024-02-23T04:07:27;97901.03;;;9.86;55.53
15817;BME280;8009;50.070;8.232;2024-02-23T04:09:55;97906.47;;;10.02;56.22
15817;BME280;8009;50.070;8.232;2024-02-23T04:12:24;97918.59;;;9.30;56.64
15817;BME280;8009;50.070;8.232;2024-02-23T04:14:52;97916.22;;;9.95;56.17
15817;BME280;8009;50.070;8.232;2024-02-23T04:17:21;97918.91;;;9.95;55.91
15817;BME280;8009;50.070;8.232;2024-02-23T04:19:49;97920.31;;;9.31;56.22
15817;BME280;8009;50.070;8.232;2024-02-23T04:22:17;97920.94;;;9.25;56.51
15817;BME280;8009;50.070;8.232;2024-02-23T04:24:48;97922.59;;;9.00;58.46
15817;BME280;8009;50.070;8.232;2024-02-23T04:27:17;97916.44;;;9.68;55.52
15817;BME280;8009;50.070;8.232;2024-02-23T04:29:46;97913.34;;;9.81;54.83
15817;BME280;8009;50.070;8.232;2024-02-23T04:32:14;97913.13;;;9.40;56.08
15817;BME280;8009;50.070;8.232;2024-02-23T04:34:43;97909.94;;;9.44;55.57
15817;BME280;8009;50.070;8.232;2024-02-23T04:37:11;97913.03;;;9.58;56.60
15817;BME280;8009;50.070;8.232;2024-02-23T04:39:39;97911.06;;;9.68;55.85
15817;BME280;8009;50.070;8.232;2024-02-23T04:42:10;97903.75;;;9.26;56.74
15817;BME280;8009;50.070;8.232;2024-02-23T04:44:41;97907.06;;;9.46;55.61
15817;BME280;8009;50.070;8.232;2024-02-23T04:47:09;97907.59;;;9.84;54.84
15817;BME280;8009;50.070;8.232;2024-02-23T04:49:37;97911.06;;;9.68;56.16
15817;BME280;8009;50.070;8.232;2024-02-23T04:52:06;97914.53;;;9.26;56.62
15817;BME280;8009;50.070;8.232;2024-02-23T04:54:34;97927.59;;;9.39;56.53
15817;BME280;8009;50.070;8.232;2024-02-23T04:57:03;97924.72;;;9.40;56.53
15817;BME280;8009;50.070;8.232;2024-02-23T04:59:33;97933.50;;;9.76;55.89
15817;BME280;8009;50.070;8.232;2024-02-23T05:02:02;97937.34;;;9.66;55.82
15817;BME280;8009;50.070;8.232;2024-02-23T05:04:30;97943.03;;;9.63;56.08
15817;BME280;8009;50.070;8.232;2024-02-23T05:07:01;97947.28;;;9.39;57.17
15817;BME280;8009;50.070;8.232;2024-02-23T05:09:29;97955.22;;;9.75;55.75
15817;BME280;8009;50.070;8.232;2024-02-23T05:11:58;97954.06;;;9.77;55.34
15817;BME280;8009;50.070;8.232;2024-02-23T05:14:26;97958.44;;;9.79;55.50
15817;BME280;8009;50.070;8.232;2024-02-23T05:16:57;97958.09;;;9.73;55.24
15817;BME280;8009;50.070;8.232;2024-02-23T05:19:25;97965.50;;;9.45;55.86
15817;BME280;8009;50.070;8.232;2024-02-23T05:21:54;97964.13;;;9.67;55.01
15817;BME280;8009;50.070;8.232;2024-02-23T05:24:22;97957.41;;;9.45;55.68
15817;BME280;8009;50.070;8.232;2024-02-23T05:26:51;97956.03;;;9.67;55.46
15817;BME280;8009;50.070;8.232;2024-02-23T05:29:19;97953.34;;;9.41;54.90
15817;BME280;8009;50.070;8.232;2024-02-23T05:31:49;97954.41;;;9.22;56.85
15817;BME280;8009;50.070;8.232;2024-02-23T05:34:20;97959.75;;;9.66;54.20
15817;BME280;8009;50.070;8.232;2024-02-23T05:36:49;97951.97;;;9.37;55.82
15817;BME280;8009;50.070;8.232;2024-02-23T05:39:17;97954.66;;;9.37;54.85
15817;BME280;8009;50.070;8.232;2024-02-23T05:41:46;97947.84;;;9.25;55.80
15817;BME280;8009;50.070;8.232;2024-02-23T05:44:14;97946.72;;;9.27;56.08
15817;BME280;8009;50.070;8.232;2024-02-23T05:46:43;97937.66;;;9.11;55.44
15817;BME280;8009;50.070;8.232;2024-02-23T05:49:12;97946.63;;;9.45;55.61
15817;BME280;8009;50.070;8.232;2024-02-23T05:51:43;97946.31;;;9.48;54.14
15817;BME280;8009;50.070;8.232;2024-02-23T05:54:11;97942.88;;;9.38;55.92
15817;BME280;8009;50.070;8.232;2024-02-23T05:56:40;97952.69;;;9.39;54.73
15817;BME280;8009;50.070;8.232;2024-02-23T05:59:08;97948.81;;;9.16;55.22
15817;BME280;8009;50.070;8.232;2024-02-23T06:01:36;97961.22;;;9.09;55.28
15817;BME280;8009;50.070;8.232;2024-02-23T06:04:05;97964.63;;;8.75;57.32
15817;BME280;8009;50.070;8.232;2024-02-23T06:06:33;97959.78;;;9.48;54.79
15817;BME280;8009;50.070;8.232;2024-02-23T06:09:04;97958.50;;;9.35;54.33
15817;BME280;8009;50.070;8.232;2024-02-23T06:11:32;97964.97;;;9.68;52.75
15817;BME280;8009;50.070;8.232;2024-02-23T06:14:01;97972.25;;;9.49;53.68
15817;BME280;8009;50.070;8.232;2024-02-23T06:16:29;97979.41;;;9.59;54.60
15817;BME280;8009;50.070;8.232;2024-02-23T06:18:57;97978.38;;;9.60;53.77
15817;BME280;8009;50.070;8.232;2024-02-23T06:21:26;97969.03;;;9.46;55.09
15817;BME280;8009;50.070;8.232;2024-02-23T06:23:55;97980.72;;;9.11;54.67
15817;BME280;8009;50.070;8.232;2024-02-23T06:26:26;97968.91;;;9.30;53.75
15817;BME280;8009;50.070;8.232;2024-02-23T06:28:54;97967.38;;;9.27;56.61
15817;BME280;8009;50.070;8.232;2024-02-23T06:31:23;97974.31;;;8.86;55.90
15817;BME280;8009;50.070;8.232;2024-02-23T06:33:51;97974.47;;;9.28;55.51
15817;BME280;8009;50.070;8.232;2024-02-23T06:36:19;97991.59;;;9.45;56.42
15817;BME280;8009;50.070;8.232;2024-02-23T06:38:48;97989.81;;;9.10;56.48
15817;BME280;8009;50.070;8.232;2024-02-23T06:41:16;97991.59;;;9.01;56.57
15817;BME280;8009;50.070;8.232;2024-02-23T06:43:49;97981.38;;;9.31;56.27
15817;BME280;8009;50.070;8.232;2024-02-23T06:46:19;97991.34;;;9.12;55.70
15817;BME280;8009;50.070;8.232;2024-02-23T06:48:47;97996.66;;;9.48;57.68
15817;BME280;8009;50.070;8.232;2024-02-23T06:51:16;98000.03;;;9.50;55.73
15817;BME280;8009;50.070;8.232;2024-02-23T06:53:45;97993.75;;;9.67;56.09
15817;BME280;8009;50.070;8.232;2024-02-23T06:56:14;97994.91;;;9.65;55.57
15817;BME280;8009;50.070;8.232;2024-02-23T06:58:42;98002.31;;;9.37;55.74
15817;BME280;8009;50.070;8.232;2024-02-23T07:01:13;98000.09;;;9.32;55.83
15817;BME280;8009;50.070;8.232;2024-02-23T07:03:42;98010.63;;;9.69;54.79
15817;BME280;8009;50.070;8.232;2024-02-23T07:06:10;98003.94;;;9.12;56.37
15817;BME280;8009;50.070;8.232;2024-02-23T07:08:39;98005.91;;;9.45;55.32
15817;BME280;8009;50.070;8.232;2024-02-23T07:11:07;98016.97;;;8.63;56.87
15817;BME280;8009;50.070;8.232;2024-02-23T07:13:35;98002.16;;;9.64;54.34
15817;BME280;8009;50.070;8.232;2024-02-23T07:16:06;98004.59;;;9.75;53.16
15817;BME280;8009;50.070;8.232;2024-02-23T07:18:37;98005.41;;;10.02;53.20
15817;BME280;8009;50.070;8.232;2024-02-23T07:21:06;98018.66;;;9.95;53.41
15817;BME280;8009;50.070;8.232;2024-02-23T07:23:35;98018.00;;;9.67;54.06
15817;BME280;8009;50.070;8.232;2024-02-23T07:26:03;98011.28;;;9.45;54.09
15817;BME280;8009;50.070;8.232;2024-02-23T07:28:31;98020.22;;;9.98;52.72
15817;BME280;8009;50.070;8.232;2024-02-23T07:31:00;98013.84;;;9.73;53.92
15817;BME280;8009;50.070;8.232;2024-02-23T07:33:28;98011.81;;;10.01;52.73
15817;BME280;8009;50.070;8.232;2024-02-23T07:35:59;98013.56;;;10.18;52.52
15817;BME280;8009;50.070;8.232;2024-02-23T07:38:27;98013.03;;;10.15;53.14
15817;BME280;8009;50.070;8.232;2024-02-23T07:40:56;98026.75;;;9.95;53.85
15817;BME280;8009;50.070;8.232;2024-02-23T07:43:25;98025.28;;;10.01;53.80
15817;BME280;8009;50.070;8.232;2024-02-23T07:45:56;98022.94;;;10.32;51.89
15817;BME280;8009;50.070;8.232;2024-02-23T07:48:24;98027.31;;;10.07;53.10
15817;BME280;8009;50.070;8.232;2024-02-23T07:50:53;98032.94;;;10.14;54.60
15817;BME280;8009;50.070;8.232;2024-02-23T07:53:24;98031.22;;;10.05;52.99
15817;BME280;8009;50.070;8.232;2024-02-23T07:55:52;98030.38;;;10.04;53.32
15817;BME280;8009;50.070;8.232;2024-02-23T07:58:20;98041.47;;;9.75;53.00
15817;BME280;8009;50.070;8.232;2024-02-23T08:00:49;98039.03;;;9.64;53.65
15817;BME280;8009;50.070;8.232;2024-02-23T08:03:18;98047.88;;;9.74;54.25
15817;BME280;8009;50.070;8.232;2024-02-23T08:05:46;98039.44;;;10.29;52.77
15817;BME280;8009;50.070;8.232;2024-02-23T08:08:15;98051.84;;;9.62;53.80
15817;BME280;8009;50.070;8.232;2024-02-23T08:10:46;98036.94;;;9.75;53.71
15817;BME280;8009;50.070;8.232;2024-02-23T08:13:15;98052.44;;;9.56;54.74
15817;BME280;8009;50.070;8.232;2024-02-23T08:15:43;98054.72;;;9.68;54.42
15817;BME280;8009;50.070;8.232;2024-02-23T08:18:14;98059.81;;;9.71;53.27
15817;BME280;8009;50.070;8.232;2024-02-23T08:20:42;98056.69;;;9.58;53.87
15817;BME280;8009;50.070;8.232;2024-02-23T08:23:11;98062.97;;;10.19;53.13
15817;BME280;8009;50.070;8.232;2024-02-23T08:25:39;98063.00;;;9.93;53.11
15817;BME280;8009;50.070;8.232;2024-02-23T08:28:10;98063.97;;;9.92;53.41
15817;BME280;8009;50.070;8.232;2024-02-23T08:30:38;98070.66;;;10.32;52.51
15817;BME280;8009;50.070;8.232;2024-02-23T08:33:07;98069.84;;;10.13;53.16
15817;BME280;8009;50.070;8.232;2024-02-23T08:35:36;98078.19;;;9.76;53.88
15817;BME280;8009;50.070;8.232;2024-02-23T08:38:04;98063.84;;;9.93;53.11
15817;BME280;8009;50.070;8.232;2024-02-23T08:40:34;98078.84;;;9.96;53.42
15817;BME280;8009;50.070;8.232;2024-02-23T08:43:03;98070.69;;;10.14;52.01
15817;BME280;8009;50.070;8.232;2024-02-23T08:45:34;98077.25;;;10.11;52.72
15817;BME280;8009;50.070;8.232;2024-02-23T08:48:05;98080.72;;;10.30;53.65
15817;BME280;8009;50.070;8.232;2024-02-23T08:50:34;98088.41;;;10.16;53.43
15817;BME280;8009;50.070;8.232;2024-02-23T08:53:04;98084.38;;;10.20;53.64
15817;BME280;8009;50.070;8.232;2024-02-23T08:55:32;98081.56;;;9.96;53.37
15817;BME280;8009;50.070;8.232;2024-02-23T08:58:01;98081.16;;;10.17;53.71
15817;BME280;8009;50.070;8.232;2024-02-23T09:00:33;98078.41;;;10.09;52.54
15817;BME280;8009;50.070;8.232;2024-02-23T09:03:02;98074.06;;;10.42;52.71
15817;BME280;8009;50.070;8.232;2024-02-23T09:05:31;98066.09;;;10.32;53.25
15817;BME280;8009;50.070;8.232;2024-02-23T09:07:59;98067.81;;;10.41;51.60
15817;BME280;8009;50.070;8.232;2024-02-23T09:10:27;98065.38;;;10.64;52.52
15817;BME280;8009;50.070;8.232;2024-02-23T09:12:56;98064.91;;;10.69;52.56
15817;BME280;8009;50.070;8.232;2024-02-23T09:15:24;98069.91;;;10.56;52.09
15817;BME280;8009;50.070;8.232;2024-02-23T09:17:55;98064.06;;;10.77;52.61
15817;BME280;8009;50.070;8.232;2024-02-23T09:20:24;98060.56;;;10.84;51.09
15817;BME280;8009;50.070;8.232;2024-02-23T09:22:53;98071.69;;;10.89;51.94
15817;BME280;8009;50.070;8.232;2024-02-23T09:25:22;98061.41;;;10.93;50.80
15817;BME280;8009;50.070;8.232;2024-02-23T09:27:50;98066.00;;;11.09;50.86
15817;BME280;8009;50.070;8.232;2024-02-23T09:30:19;98066.91;;;10.75;53.12
15817;BME280;8009;50.070;8.232;2024-02-23T09:32:47;98068.47;;;10.78;52.12
15817;BME280;8009;50.070;8.232;2024-02-23T09:35:18;98072.09;;;11.35;50.10
15817;BME280;8009;50.070;8.232;2024-02-23T09:37:47;98061.75;;;11.06;50.87
15817;BME280;8009;50.070;8.232;2024-02-23T09:40:16;98065.31;;;10.48;51.97
15817;BME280;8009;50.070;8.232;2024-02-23T09:42:49;98072.69;;;10.38;53.59
15817;BME280;8009;50.070;8.232;2024-02-23T09:45:23;98061.72;;;10.05;52.17
15817;BME280;8009;50.070;8.232;2024-02-23T09:47:53;98053.25;;;10.68;54.23
15817;BME280;8009;50.070;8.232;2024-02-23T09:50:27;98063.78;;;10.96;53.11
15817;BME280;8009;50.070;8.232;2024-02-23T09:52:58;98057.31;;;10.72;52.56
15817;BME280;8009;50.070;8.232;2024-02-23T09:55:29;98071.38;;;10.42;53.90
15817;BME280;8009;50.070;8.232;2024-02-23T09:58:06;98057.94;;;11.41;50.11
15817;BME280;8009;50.070;8.232;2024-02-23T10:00:36;98061.44;;;11.66;50.15
15817;BME280;8009;50.070;8.232;2024-02-23T10:03:06;98071.25;;;11.27;51.56
15817;BME280;8009;50.070;8.232;2024-02-23T10:05:37;98065.34;;;11.47;50.38
15817;BME280;8009;50.070;8.232;2024-02-23T10:08:06;98067.66;;;11.02;51.08
15817;BME280;8009;50.070;8.232;2024-02-23T10:10:35;98066.47;;;10.88;52.17
15817;BME280;8009;50.070;8.232;2024-02-23T10:13:04;98058.25;;;11.55;49.64
15817;BME280;8009;50.070;8.232;2024-02-23T10:15:33;98059.09;;;11.63;51.01
15817;BME280;8009;50.070;8.232;2024-02-23T10:18:01;98065.13;;;10.84;51.33
15817;BME280;8009;50.070;8.232;2024-02-23T10:20:30;98062.63;;;11.23;51.66
15817;BME280;8009;50.070;8.232;2024-02-23T10:23:04;98059.09;;;11.63;50.08
15817;BME280;8009;50.070;8.232;2024-02-23T10:25:33;98066.31;;;11.06;51.87
15817;BME280;8009;50.070;8.232;2024-02-23T10:28:02;98054.53;;;11.56;50.62
15817;BME280;8009;50.070;8.232;2024-02-23T10:30:31;98052.50;;;11.58;48.69
15817;BME280;8009;50.070;8.232;2024-02-23T10:33:00;98044.56;;;11.73;49.86
15817;BME280;8009;50.070;8.232;2024-02-23T10:35:29;98044.41;;;11.41;49.97
15817;BME280;8009;50.070;8.232;2024-02-23T10:38:04;98048.59;;;11.93;51.79
15817;BME280;8009;50.070;8.232;2024-02-23T10:40:37;98046.25;;;11.98;48.78
15817;BME280;8009;50.070;8.232;2024-02-23T10:43:11;98062.28;;;11.67;48.91
15817;BME280;8009;50.070;8.232;2024-02-23T10:45:41;98058.94;;;11.49;50.76
15817;BME280;8009;50.070;8.232;2024-02-23T10:48:10;98058.06;;;11.97;53.00
15817;BME280;8009;50.070;8.232;2024-02-23T10:50:40;98052.50;;;11.99;48.89
15817;BME280;8009;50.070;8.232;2024-02-23T10:53:13;98048.78;;;11.59;48.55
15817;BME280;8009;50.070;8.232;2024-02-23T10:55:42;98046.56;;;11.70;50.04
15817;BME280;8009;50.070;8.232;2024-02-23T10:58:14;98050.47;;;11.92;48.96
15817;BME280;8009;50.070;8.232;2024-02-23T11:00:42;98045.41;;;11.73;48.63
15817;BME280;8009;50.070;8.232;2024-02-23T11:03:08;98040.44;;;12.09;47.93
15817;BME280;8009;50.070;8.232;2024-02-23T11:05:37;98045.06;;;11.76;47.03
15817;BME280;8009;50.070;8.232;2024-02-23T11:08:06;98034.25;;;11.92;48.49
15817;BME280;8009;50.070;8.232;2024-02-23T11:10:48;98037.75;;;12.01;49.46
15817;BME280;8009;50.070;8.232;2024-02-23T11:13:18;98038.50;;;12.74;52.25
15817;BME280;8009;50.070;8.232;2024-02-23T11:15:46;98032.84;;;12.05;49.78
15817;BME280;8009;50.070;8.232;2024-02-23T11:18:21;98026.38;;;12.92;49.22
15817;BME280;8009;50.070;8.232;2024-02-23T11:20:54;98014.31;;;12.72;50.16
15817;BME280;8009;50.070;8.232;2024-02-23T11:23:24;98014.91;;;12.51;47.55
15817;BME280;8009;50.070;8.232;2024-02-23T11:26:04;98024.81;;;11.47;48.52
15817;BME280;8009;50.070;8.232;2024-02-23T11:28:41;98032.13;;;12.98;46.83
15817;BME280;8009;50.070;8.232;2024-02-23T11:31:12;98016.78;;;12.82;47.70
15817;BME280;8009;50.070;8.232;2024-02-23T11:33:52;98023.78;;;12.99;45.39
15817;BME280;8009;50.070;8.232;2024-02-23T11:36:29;98027.19;;;13.01;46.53
15817;BME280;8009;50.070;8.232;2024-02-23T11:38:59;98029.53;;;12.73;45.35
15817;BME280;8009;50.070;8.232;2024-02-23T11:41:34;98029.34;;;13.06;45.05
15817;BME280;8009;50.070;8.232;2024-02-23T11:44:04;98027.34;;;13.00;44.88
15817;BME280;8009;50.070;8.232;2024-02-23T11:46:32;98023.66;;;12.92;45.85
15817;BME280;8009;50.070;8.232;2024-02-23T11:49:01;98028.19;;;12.69;47.30
15817;BME280;8009;50.070;8.232;2024-02-23T11:51:31;98020.31;;;13.13;46.29
15817;BME280;8009;50.070;8.232;2024-02-23T11:54:09;98019.31;;;13.37;45.44
15817;BME280;8009;50.070;8.232;2024-02-23T11:56:43;98015.63;;;13.30;43.13
15817;BME280;8009;50.070;8.232;2024-02-23T11:59:13;98023.22;;;12.81;48.67
15817;BME280;8009;50.070;8.232;2024-02-23T12:01:41;98025.53;;;12.92;44.84
15817;BME280;8009;50.070;8.232;2024-02-23T12:04:09;98023.94;;;13.06;48.68
15817;BME280;8009;50.070;8.232;2024-02-23T12:06:40;98027.72;;;12.26;46.56
15817;BME280;8009;50.070;8.232;2024-02-23T12:09:09;98030.66;;;12.48;45.75
15817;BME280;8009;50.070;8.232;2024-02-23T12:11:40;98025.25;;;13.10;49.95
15817;BME280;8009;50.070;8.232;2024-02-23T12:14:09;98022.38;;;12.10;46.21
15817;BME280;8009;50.070;8.232;2024-02-23T12:16:40;98031.25;;;11.22;48.22
15817;BME280;8009;50.070;8.232;2024-02-23T12:19:10;98030.59;;;12.25;45.00
15817;BME280;8009;50.070;8.232;2024-02-23T12:21:38;98031.44;;;12.33;46.68
15817;BME280;8009;50.070;8.232;2024-02-23T12:24:08;98034.66;;;12.68;46.94
15817;BME280;8009;50.070;8.232;2024-02-23T12:26:37;98035.84;;;12.65;45.74
15817;BME280;8009;50.070;8.232;2024-02-23T12:29:09;98038.94;;;12.54;45.47
15817;BME280;8009;50.070;8.232;2024-02-23T12:31:38;98046.84;;;12.64;46.25
15817;BME280;8009;50.070;8.232;2024-02-23T12:34:06;98035.69;;;12.19;53.23
15817;BME280;8009;50.070;8.232;2024-02-23T12:36:36;98040.44;;;12.17;46.67
15817;BME280;8009;50.070;8.232;2024-02-23T12:39:05;98037.34;;;12.37;45.28
15817;BME280;8009;50.070;8.232;2024-02-23T12:41:33;98035.44;;;12.46;48.07
15817;BME280;8009;50.070;8.232;2024-02-23T12:44:02;98041.22;;;12.34;46.76
15817;BME280;8009;50.070;8.232;2024-02-23T12:46:33;98037.09;;;12.07;46.05
15817;BME280;8009;50.070;8.232;2024-02-23T12:49:02;98034.44;;;12.38;45.06
15817;BME280;8009;50.070;8.232;2024-02-23T12:51:30;98046.38;;;12.60;50.92
15817;BME280;8009;50.070;8.232;2024-02-23T12:54:00;98044.19;;;12.48;44.66
15817;BME280;8009;50.070;8.232;2024-02-23T12:56:30;98049.59;;;12.56;48.37
15817;BME280;8009;50.070;8.232;2024-02-23T12:58:58;98049.66;;;12.79;46.75
15817;BME280;8009;50.070;8.232;2024-02-23T13:01:26;98040.72;;;12.70;45.55
15817;BME280;8009;50.070;8.232;2024-02-23T13:03:59;98044.13;;;13.26;43.93
15817;BME280;8009;50.070;8.232;2024-02-23T13:06:28;98041.16;;;12.82;46.33
15817;BME280;8009;50.070;8.232;2024-02-23T13:08:56;98035.13;;;12.40;44.54
15817;BME280;8009;50.070;8.232;2024-02-23T13:11:25;98034.06;;;12.50;45.31
15817;BME280;8009;50.070;8.232;2024-02-23T13:13:53;98032.88;;;11.97;46.05
15817;BME280;8009;50.070;8.232;2024-02-23T13:16:21;98034.91;;;11.86;45.13
15817;BME280;8009;50.070;8.232;2024-02-23T13:18:49;98033.97;;;12.66;43.82
15817;BME280;8009;50.070;8.232;2024-02-23T13:21:20;98030.28;;;12.59;43.35
15817;BME280;8009;50.070;8.232;2024-02-23T13:23:49;98038.13;;;13.08;42.53
15817;BME280;8009;50.070;8.232;2024-02-23T13:26:18;98042.75;;;12.99;43.73